Aviation Digital Data Service (ADDS)

Output produced by METARs form (1914 UTC 19 April 2019)
found at http://www.aviationweather.gov/metar/data/
 
Forecast for: LOWW (VIENNA/SCHWECHAT, AT)
Text: TAF LOWW 191715Z 1918/2024 01006KT CAVOK TX22/2015Z TN06/2004Z
Forecast period: 1800 to 2200 UTC 19 April 2019
Forecast type: FROM: standard forecast or significant change
Winds: from the N (10 degrees) at 7 MPH (6 knots; 3.1 m/s)
Visibility: 6 or more miles 10+ km)
Ceiling: unknown
Clouds: missing
Weather: no significant weather forecast for this period
Text: BECMG 1922/1924 VRB02KT
Forecast period: 2200 UTC 19 April 2019 to 0000 UTC 21 April 2019
Forecast type: BECOMING: Conditions expected to become as follows by 0000 UTC 20 April 2019
Winds: variable direction winds at 2 MPH (2 knots; 1.0 m/s)
Visibility: 6 or more miles 10+ km)
Ceiling: unknown
Clouds: missing
Weather: no significant weather forecast for this period